Time;durP1;ratioP1;P1;durP2;ratioP2;P2;SDS_P1;SDS_P2;PMS_P1;PMS_P2;Temp;Humidity;BMP_temperature;BMP_pressure;BME280_temperature;BME280_humidity;BME280_pressure;Samples;Min_cycle;Max_cycle;Signal;HPM_P1;HPM_P2
2021/03/28 00:00:20;;;;;;;55.35;30.25;;;;;;;3.17;89.77;98391.97;4954967;28;20049;-83
2021/03/28 00:03:00;;;;;;;57.35;27.60;;;;;;;3.04;88.57;98386.97;4936135;29;20411;-84
2021/03/28 00:05:32;;;;;;;55.03;27.02;;;;;;;2.95;88.66;98388.00;4987149;28;20034;-83
2021/03/28 00:08:15;;;;;;;51.80;26.38;;;;;;;2.99;89.14;98391.44;5011458;28;20033;-82
2021/03/28 00:10:43;;;;;;;54.58;28.52;;;;;;;2.93;90.44;98383.63;4998137;28;20026;-82
2021/03/28 00:13:21;;;;;;;57.65;28.75;;;;;;;2.96;90.61;98388.84;4997996;28;20029;-81
2021/03/28 00:16:01;;;;;;;66.40;31.70;;;;;;;2.91;90.86;98383.66;5014306;28;20044;-82
2021/03/28 00:18:31;;;;;;;70.95;31.92;;;;;;;2.95;91.50;98389.78;4997936;28;20064;-83
2021/03/28 00:21:08;;;;;;;80.30;39.03;;;;;;;2.99;91.73;98396.72;5014073;28;20043;-83
2021/03/28 00:23:43;;;;;;;73.15;35.97;;;;;;;2.91;91.51;98383.66;5007533;28;20029;-82
2021/03/28 00:26:29;;;;;;;78.18;38.00;;;;;;;2.92;91.91;98395.13;4997491;28;20033;-83
2021/03/28 00:29:10;;;;;;;72.57;36.88;;;;;;;2.94;91.71;98393.31;5014004;28;20454;-83
2021/03/28 00:31:54;;;;;;;68.13;33.92;;;;;;;2.93;91.75;98399.47;5007289;28;20030;-81
2021/03/28 00:34:33;;;;;;;58.05;30.73;;;;;;;2.87;91.14;98404.88;4997522;28;20021;-83
2021/03/28 00:37:01;;;;;;;52.85;27.65;;;;;;;2.65;90.81;98381.47;4997872;28;20033;-83
2021/03/28 00:39:45;;;;;;;60.60;28.10;;;;;;;2.81;91.50;98405.84;4981286;28;20037;-83
2021/03/28 00:42:37;;;;;;;55.78;28.73;;;;;;;2.82;91.60;98401.44;5013639;28;20036;-82
2021/03/28 00:45:20;;;;;;;74.00;33.03;;;;;;;2.73;92.38;98400.72;4997807;28;20057;-83
2021/03/28 00:48:24;;;;;;;68.97;35.42;;;;;;;2.68;93.03;98396.41;5025652;28;20048;-83
2021/03/28 00:50:56;;;;;;;64.90;33.00;;;;;;;2.67;92.81;98403.47;4992229;28;20485;-82
2021/03/28 00:53:39;;;;;;;71.53;32.07;;;;;;;2.63;93.40;98403.53;5013671;28;20489;-84
2021/03/28 00:56:11;;;;;;;59.90;30.80;;;;;;;2.58;93.28;98395.72;5015608;28;20025;-82
2021/03/28 00:59:00;;;;;;;67.68;30.83;;;;;;;2.47;93.44;98400.28;5002017;28;20025;-83
2021/03/28 01:01:35;;;;;;;61.00;31.42;;;;;;;2.46;93.90;98398.53;4985528;28;20437;-83
2021/03/28 01:04:22;;;;;;;64.13;31.75;;;;;;;2.48;94.06;98399.38;5035832;28;20021;-83
2021/03/28 01:06:52;;;;;;;54.53;29.55;;;;;;;2.43;93.87;98385.38;5012232;28;20057;-83
2021/03/28 01:09:34;;;;;;;51.80;25.98;;;;;;;2.39;94.11;98388.09;5001447;28;20036;-83
2021/03/28 01:12:02;;;;;;;52.10;26.52;;;;;;;2.42;93.89;98399.50;5017785;28;20028;-84
2021/03/28 01:14:47;;;;;;;55.25;26.92;;;;;;;2.38;93.85;98391.63;5001151;28;20507;-82
2021/03/28 01:17:30;;;;;;;68.63;33.35;;;;;;;2.39;93.19;98390.75;5000791;28;20026;-83
2021/03/28 01:20:19;;;;;;;76.45;37.92;;;;;;;2.36;93.47;98391.66;5017618;28;20036;-82
2021/03/28 01:23:11;;;;;;;54.85;28.27;;;;;;;2.38;93.67;98399.53;5011027;28;20032;-84
2021/03/28 01:25:49;;;;;;;58.88;29.52;;;;;;;2.39;93.46;98401.31;5026113;28;20571;-84
2021/03/28 01:28:19;;;;;;;52.45;25.98;;;;;;;2.31;93.88;98390.84;5017113;28;20035;-83
2021/03/28 01:30:48;;;;;;;53.50;28.45;;;;;;;2.24;94.66;98386.59;5017501;28;20061;-82
2021/03/28 01:33:42;;;;;;;53.15;26.20;;;;;;;2.29;93.64;98399.69;5000776;28;20025;-84
2021/03/28 01:36:19;;;;;;;55.17;27.05;;;;;;;2.34;94.34;98406.63;5001161;28;20451;-83
2021/03/28 01:38:56;;;;;;;54.92;25.35;;;;;;;2.31;94.37;98390.84;4985872;28;20029;-83
2021/03/28 01:41:24;;;;;;;54.63;26.85;;;;;;;2.34;93.97;98401.34;5000670;28;20493;-83
2021/03/28 01:44:17;;;;;;;49.20;25.98;;;;;;;2.33;94.68;98404.91;5000785;28;20489;-83
2021/03/28 01:46:58;;;;;;;45.42;23.02;;;;;;;2.34;93.96;98406.63;4993299;28;20029;-83
2021/03/28 01:49:44;;;;;;;52.92;27.20;;;;;;;2.41;94.29;98407.41;5016761;28;20091;-83
2021/03/28 01:52:28;;;;;;;59.45;26.55;;;;;;;2.38;94.97;98404.81;5016909;28;20111;-83
2021/03/28 01:55:01;;;;;;;51.17;25.83;;;;;;;2.39;94.47;98403.94;5011021;28;20083;-82
2021/03/28 01:57:45;;;;;;;52.83;25.25;;;;;;;2.39;94.40;98410.09;5000313;28;20025;-83
2021/03/28 02:00:32;;;;;;;52.72;25.83;;;;;;;2.38;94.82;98410.09;5016750;28;20076;-83
2021/03/28 02:03:06;;;;;;;53.35;27.75;;;;;;;2.30;95.57;98407.59;5011144;28;20394;-83
2021/03/28 02:05:41;;;;;;;58.13;27.80;;;;;;;2.31;95.56;98409.31;5000344;28;20033;-83
2021/03/28 02:08:17;;;;;;;58.38;29.42;;;;;;;2.29;94.91;98397.06;5015748;28;20032;-83
2021/03/28 02:11:20;;;;;;;60.08;29.52;;;;;;;2.33;95.60;98407.56;5016563;28;20057;-83
2021/03/28 02:13:56;;;;;;;68.38;33.80;;;;;;;2.30;95.10;98410.25;5009409;28;20033;-82
2021/03/28 02:17:00;;;;;;;69.70;32.60;;;;;;;2.30;95.30;98398.81;5000002;28;20478;-83
2021/03/28 02:19:33;;;;;;;75.18;35.97;;;;;;;2.30;95.14;98399.69;5000003;28;20099;-83
2021/03/28 02:22:10;;;;;;;;;;;;;;;2.27;95.57;98399.72;5000922;28;20029;-83
2021/03/28 02:25:24;;;;;;;73.60;33.55;;;;;;;2.21;95.35;98420.94;5016160;28;19920;-83
2021/03/28 02:28:14;;;;;;;73.55;35.08;;;;;;;2.15;95.87;98411.31;4930540;29;20066;-82
2021/03/28 02:30:43;;;;;;;74.53;35.40;;;;;;;2.17;95.81;98419.22;4937605;29;20038;-82
2021/03/28 02:33:26;;;;;;;70.90;34.15;;;;;;;2.11;95.93;98414.94;5005242;28;20091;-83
2021/03/28 02:36:30;;;;;;;78.30;34.13;;;;;;;2.00;96.07;98406.28;4996582;28;20116;-83
2021/03/28 02:39:28;;;;;;;67.15;34.42;;;;;;;2.02;97.35;98416.81;5016082;28;20404;-82
2021/03/28 02:42:02;;;;;;;62.35;32.72;;;;;;;2.00;96.65;98431.81;4989387;28;20580;-82
2021/03/28 02:44:31;;;;;;;64.75;31.20;;;;;;;1.97;96.78;98419.50;5013694;28;20025;-84
2021/03/28 02:47:18;;;;;;;67.05;32.05;;;;;;;1.98;97.34;98433.56;5016217;28;20029;-84
2021/03/28 02:50:08;;;;;;;66.18;32.03;;;;;;;1.95;97.07;98431.84;5015993;28;20029;-83
2021/03/28 02:53:04;;;;;;;64.38;31.17;;;;;;;1.94;97.62;98431.88;5015675;28;20049;-82
2021/03/28 02:55:53;;;;;;;64.78;31.10;;;;;;;1.87;97.43;98436.38;4999096;28;20037;-83
2021/03/28 02:58:37;;;;;;;62.80;31.80;;;;;;;1.83;98.03;98433.78;4999579;28;20067;-81
2021/03/28 03:01:43;;;;;;;65.78;32.72;;;;;;;1.80;97.57;98431.19;5027461;28;20030;-83
2021/03/28 03:04:21;;;;;;;68.30;33.20;;;;;;;1.81;97.79;98431.19;4980300;28;20040;-83
2021/03/28 03:07:11;;;;;;;64.45;31.95;;;;;;;1.78;97.67;98428.59;5007402;28;20029;-82
2021/03/28 03:10:11;;;;;;;59.75;30.05;;;;;;;1.71;98.52;98426.03;5015033;28;20033;-82
2021/03/28 03:12:56;;;;;;;61.67;29.60;;;;;;;1.69;99.17;98441.00;5015145;28;20029;-84
2021/03/28 03:15:44;;;;;;;70.07;29.55;;;;;;;1.67;99.28;98440.13;5015487;28;20079;-82
2021/03/28 03:18:46;;;;;;;59.22;28.90;;;;;;;1.71;98.17;98440.09;4999166;28;20095;-83
2021/03/28 03:21:15;;;;;;;75.75;31.80;;;;;;;1.67;98.30;98454.19;4995862;28;20494;-82
2021/03/28 03:24:17;;;;;;;66.90;31.05;;;;;;;1.74;98.83;98447.97;5005531;28;20116;-83
2021/03/28 03:26:54;;;;;;;73.55;32.10;;;;;;;1.80;98.25;98439.97;5014925;28;20103;-83
2021/03/28 03:29:58;;;;;;;59.70;29.27;;;;;;;1.85;97.71;98451.31;4999052;28;20030;-83
2021/03/28 03:32:54;;;;;;;59.95;29.38;;;;;;;1.92;98.11;98460.03;4980169;28;20049;-82
2021/03/28 03:35:59;;;;;;;55.72;26.25;;;;;;;1.86;96.94;98461.00;5014941;28;20109;-83
2021/03/28 03:38:38;;;;;;;52.53;27.20;;;;;;;1.79;96.73;98455.81;5027091;28;20049;-82
2021/03/28 03:41:41;;;;;;;56.03;27.58;;;;;;;1.81;96.83;98456.69;4991793;28;20489;-83
2021/03/28 03:44:36;;;;;;;58.42;27.55;;;;;;;1.74;97.23;98455.88;4936591;29;20042;-82
2021/03/28 03:47:26;;;;;;;64.05;30.15;;;;;;;1.76;96.95;98464.63;4909874;29;20038;-81
2021/03/28 03:50:00;;;;;;;57.15;27.90;;;;;;;1.77;98.41;98471.66;5017075;28;20063;-82
2021/03/28 03:52:47;;;;;;;58.95;26.80;;;;;;;1.76;98.31;98472.53;5014611;28;20053;-82
2021/03/28 03:55:36;;;;;;;59.85;28.70;;;;;;;1.73;98.84;98469.06;5014527;28;20120;-82
2021/03/28 03:58:10;;;;;;;62.60;29.20;;;;;;;1.72;98.59;98467.34;5014478;28;20025;-82
2021/03/28 04:00:48;;;;;;;65.35;31.48;;;;;;;1.74;98.94;98469.06;5032057;28;20112;-82
2021/03/28 04:03:41;;;;;;;63.78;30.45;;;;;;;1.80;99.26;98473.38;5014547;28;20032;-82
2021/03/28 04:06:12;;;;;;;73.32;33.90;;;;;;;1.79;98.96;98472.50;4991112;28;20378;-82
2021/03/28 04:09:05;;;;;;;74.57;34.13;;;;;;;1.80;98.86;98473.38;5014529;28;20419;-82
2021/03/28 04:11:53;;;;;;;74.05;34.63;;;;;;;1.80;98.45;98476.00;4997794;28;20040;-82
2021/03/28 04:14:43;;;;;;;67.63;31.90;;;;;;;1.84;98.09;98483.88;5008762;28;20024;-83
2021/03/28 04:17:41;;;;;;;68.18;32.20;;;;;;;1.83;97.62;98481.25;5024012;28;20536;-83
2021/03/28 04:20:29;;;;;;;67.90;32.25;;;;;;;1.81;97.83;98476.00;4996630;28;20052;-84
2021/03/28 04:23:10;;;;;;;63.70;31.67;;;;;;;1.87;97.40;98490.88;4998020;28;20064;-82
2021/03/28 04:25:55;;;;;;;72.45;34.03;;;;;;;1.87;97.49;98483.84;5014342;28;20405;-83
2021/03/28 04:28:56;;;;;;;58.67;29.77;;;;;;;1.92;96.62;98489.06;5008815;28;20481;-85
2021/03/28 04:31:40;;;;;;;65.70;31.75;;;;;;;1.96;96.46;98494.28;4996941;28;20040;-84
2021/03/28 04:34:36;;;;;;;139.30;64.93;;;;;;;1.92;95.85;98492.56;5006516;28;20071;-84
2021/03/28 04:37:19;;;;;;;87.90;43.83;;;;;;;1.94;96.08;98484.66;5013705;28;20041;-84
2021/03/28 04:40:21;;;;;;;76.70;40.00;;;;;;;1.97;96.75;98489.88;5013509;28;20037;-83
2021/03/28 04:42:50;;;;;;;56.90;29.98;;;;;;;2.05;95.77;98495.94;5013753;28;20041;-84
2021/03/28 04:45:31;;;;;;;56.30;26.48;;;;;;;2.07;95.39;98496.75;5014471;28;20402;-84
2021/03/28 04:48:11;;;;;;;63.97;29.33;;;;;;;2.02;95.33;98494.19;5013983;28;20095;-82
2021/03/28 04:51:14;;;;;;;54.45;26.02;;;;;;;2.18;95.39;98501.00;5014475;28;20087;-84
2021/03/28 04:53:58;;;;;;;58.58;27.75;;;;;;;2.31;95.60;98504.34;5014068;28;20064;-84
2021/03/28 04:56:45;;;;;;;51.35;28.20;;;;;;;2.49;95.09;98504.09;5013993;28;20033;-83
2021/03/28 04:59:10;;;;;;;51.50;27.10;;;;;;;2.84;93.18;98513.25;5006206;28;20053;-84
2021/03/28 05:01:36;;;;;;;54.50;24.75;;;;;;;3.39;89.60;98519.34;5014158;28;20057;-84
2021/03/28 05:04:26;;;;;;;51.33;23.40;;;;;;;4.11;85.34;98526.78;5013665;28;20040;-84
2021/03/28 05:07:13;;;;;;;51.70;25.17;;;;;;;4.48;81.61;98530.38;5031149;28;20559;-84
2021/03/28 05:09:52;;;;;;;59.85;28.65;;;;;;;4.66;81.18;98539.69;5013444;28;20463;-83
2021/03/28 05:12:39;;;;;;;55.97;28.42;;;;;;;5.31;78.04;98535.47;4998600;28;20108;-83
2021/03/28 05:15:20;;;;;;;75.35;36.20;;;;;;;5.88;74.87;98536.63;5013369;28;20516;-83
2021/03/28 05:18:18;;;;;;;104.13;54.65;;;;;;;6.11;72.99;98551.03;5013430;28;20463;-83
2021/03/28 05:20:56;;;;;;;99.32;43.90;;;;;;;6.64;70.43;98550.38;4980492;28;20050;-83
2021/03/28 05:23:40;;;;;;;95.13;44.50;;;;;;;7.21;67.81;98562.75;5006615;28;21097;-83
2021/03/28 05:26:11;;;;;;;97.78;48.97;;;;;;;7.76;65.47;98564.44;5012913;28;20053;-83
2021/03/28 05:28:49;;;;;;;125.22;63.42;;;;;;;7.52;65.12;98564.38;5013263;28;20432;-82
2021/03/28 05:31:14;;;;;;;120.63;60.88;;;;;;;8.54;63.12;98582.97;4997059;28;20049;-83
2021/03/28 05:34:04;;;;;;;102.68;53.00;;;;;;;9.70;57.83;98590.75;5012898;28;20457;-82
2021/03/28 05:37:07;;;;;;;117.13;55.33;;;;;;;10.23;54.70;98585.84;5007879;28;20037;-83
2021/03/28 05:40:02;;;;;;;112.10;54.97;;;;;;;9.30;56.96;98593.31;5041176;28;20030;-83
2021/03/28 05:42:39;;;;;;;119.88;60.17;;;;;;;8.65;59.33;98594.06;4993017;28;20040;-83
2021/03/28 05:45:42;;;;;;;118.47;57.90;;;;;;;8.67;60.11;98599.38;5017149;28;20052;-83
2021/03/28 05:48:32;;;;;;;121.75;63.20;;;;;;;10.04;56.11;98598.22;5016608;28;20064;-84
2021/03/28 05:51:38;;;;;;;114.25;58.58;;;;;;;11.33;51.93;98611.94;5016223;28;20045;-83
2021/03/28 05:54:26;;;;;;;108.72;58.38;;;;;;;11.50;49.55;98607.59;4998659;28;20091;-83
2021/03/28 05:57:18;;;;;;;123.20;64.07;;;;;;;11.40;50.11;98624.09;5035879;28;20041;-84
2021/03/28 06:00:05;;;;;;;107.10;58.77;;;;;;;12.00;48.62;98621.19;5000426;28;20103;-84
2021/03/28 06:02:49;;;;;;;121.57;65.15;;;;;;;12.95;46.98;98616.16;5016733;28;20282;-84
2021/03/28 06:05:43;;;;;;;86.60;49.47;;;;;;;14.35;42.73;98615.25;5000507;28;20485;-84
2021/03/28 06:08:18;;;;;;;86.53;49.67;;;;;;;14.70;43.55;98623.03;5000794;28;20025;-83
2021/03/28 06:11:12;;;;;;;90.97;49.92;;;;;;;15.80;40.40;98620.47;5016013;28;20032;-80
2021/03/28 06:14:13;;;;;;;105.95;58.15;;;;;;;16.26;38.85;98621.81;4999775;28;20048;-76
2021/03/28 06:16:51;;;;;;;91.32;46.80;;;;;;;15.03;40.75;98620.91;5016296;28;20029;-77
2021/03/28 06:19:53;;;;;;;82.30;45.65;;;;;;;14.82;40.97;98635.72;5016919;28;20037;-77
2021/03/28 06:22:22;;;;;;;70.07;41.05;;;;;;;15.90;39.77;98637.78;5016190;28;20478;-76
2021/03/28 06:25:03;;;;;;;61.75;36.92;;;;;;;15.98;40.63;98647.09;5015976;28;20536;-77
2021/03/28 06:27:50;;;;;;;51.08;26.50;;;;;;;14.51;43.00;98650.19;5033655;28;20033;-78
2021/03/28 06:30:33;;;;;;;42.28;25.55;;;;;;;13.16;45.81;98636.50;5033459;28;20029;-79
2021/03/28 06:33:20;;;;;;;45.92;26.92;;;;;;;12.42;47.23;98638.66;5033476;28;20025;-78
2021/03/28 06:36:10;;;;;;;56.45;28.48;;;;;;;11.68;49.71;98629.00;5033320;28;20029;-77
2021/03/28 06:39:16;;;;;;;53.38;28.92;;;;;;;11.90;50.18;98618.13;5015685;28;20030;-78
2021/03/28 06:41:54;;;;;;;49.88;28.38;;;;;;;14.37;44.69;98637.53;5028013;28;20040;-79
2021/03/28 06:44:37;;;;;;;45.63;27.70;;;;;;;15.93;41.41;98635.75;5033063;28;20048;-80
2021/03/28 06:47:06;;;;;;;48.78;25.95;;;;;;;17.61;36.87;98639.31;5016067;28;20112;-86
2021/03/28 06:49:37;;;;;;;69.68;38.55;;;;;;;17.05;37.26;98644.22;5017031;28;20032;-83
2021/03/28 06:52:27;;;;;;;77.30;35.70;;;;;;;15.52;40.76;98649.22;5014545;28;20493;-84
2021/03/28 06:55:08;;;;;;;99.68;54.70;;;;;;;16.87;38.57;98647.34;5005336;28;20092;-84
2021/03/28 06:58:18;;;;;;;99.65;53.33;;;;;;;15.98;39.05;98633.59;5007837;28;20493;-86
2021/03/28 07:01:11;;;;;;;87.85;46.85;;;;;;;13.99;42.98;98639.78;4999837;28;20512;-86
2021/03/28 07:04:14;;;;;;;75.30;43.10;;;;;;;14.05;43.48;98662.78;5019419;28;20484;-79
2021/03/28 07:07:20;;;;;;;68.30;37.65;;;;;;;13.86;44.29;98648.66;5012494;28;20068;-80
2021/03/28 07:10:12;;;;;;;80.03;39.53;;;;;;;13.72;44.93;98662.03;4983208;28;20125;-77
2021/03/28 07:13:08;;;;;;;78.78;43.03;;;;;;;13.49;45.37;98653.44;4996343;28;20052;-76
2021/03/28 07:15:53;;;;;;;71.07;42.22;;;;;;;13.23;45.60;98656.69;4988381;28;20037;-77
2021/03/28 07:18:31;;;;;;;80.70;43.88;;;;;;;14.24;44.48;98671.53;5012059;28;20540;-76
2021/03/28 07:21:27;;;;;;;72.47;40.35;;;;;;;15.63;41.71;98662.88;5029856;28;20057;-77
2021/03/28 07:24:08;;;;;;;66.85;40.92;;;;;;;15.43;42.66;98665.97;5029414;28;20040;-79
2021/03/28 07:26:51;;;;;;;60.65;33.35;;;;;;;16.64;39.38;98657.06;5031620;28;20493;-79
2021/03/28 07:29:48;;;;;;;55.83;31.27;;;;;;;18.32;36.85;98674.59;4997208;28;20101;-79
2021/03/28 07:32:54;;;;;;;50.92;31.00;;;;;;;19.96;33.67;98657.91;5028064;28;20053;-79
2021/03/28 07:35:41;;;;;;;52.92;29.27;;;;;;;20.81;32.21;98672.50;5028633;28;20060;-78
2021/03/28 07:38:18;;;;;;;53.42;30.08;;;;;;;20.31;31.61;98670.47;5012222;28;20033;-79
2021/03/28 07:40:48;;;;;;;58.20;32.35;;;;;;;21.13;30.56;98669.78;5030101;28;20108;-79
2021/03/28 07:43:47;;;;;;;65.45;40.45;;;;;;;20.30;31.42;98672.31;5013521;28;20025;-79
2021/03/28 07:46:21;;;;;;;52.28;29.80;;;;;;;20.63;30.08;98674.09;5010491;28;20108;-79
2021/03/28 07:49:11;;;;;;;48.55;28.83;;;;;;;19.65;31.46;98675.00;5030861;28;20033;-79
2021/03/28 07:52:14;;;;;;;44.65;26.83;;;;;;;20.05;31.41;98682.63;5031346;28;20053;-79
2021/03/28 07:54:48;;;;;;;62.70;26.85;;;;;;;21.88;29.59;98680.31;5031279;28;20736;-78
2021/03/28 07:57:26;;;;;;;44.13;26.58;;;;;;;23.35;27.84;98682.97;5031194;28;20108;-78
2021/03/28 07:59:54;;;;;;;48.47;31.48;;;;;;;23.52;26.76;98671.28;5025085;28;20035;-79
2021/03/28 08:02:20;;;;;;;47.45;29.10;;;;;;;22.66;28.34;98684.00;5013537;28;20035;-79
2021/03/28 08:05:22;;;;;;;53.67;27.02;;;;;;;23.12;27.72;98679.69;5030680;28;20132;-82
2021/03/28 08:07:52;;;;;;;45.35;25.13;;;;;;;22.65;27.90;98670.50;5011395;28;20034;-79
2021/03/28 08:10:36;;;;;;;36.85;23.25;;;;;;;21.14;29.72;98666.03;5013551;28;20117;-82
2021/03/28 08:13:20;;;;;;;37.75;24.85;;;;;;;21.20;29.65;98668.22;5030611;28;20563;-82
2021/03/28 08:16:19;;;;;;;55.42;30.67;;;;;;;21.66;29.54;98675.09;5014487;28;20079;-83
2021/03/28 08:19:17;;;;;;;36.92;25.17;;;;;;;22.47;27.77;98666.72;5010818;28;20456;-83
2021/03/28 08:21:52;;;;;;;56.47;31.55;;;;;;;22.92;28.04;98667.91;5012568;28;20030;-82
2021/03/28 08:24:36;;;;;;;49.35;27.98;;;;;;;21.31;29.26;98668.16;5016885;28;20030;-80
2021/03/28 08:27:39;;;;;;;43.05;27.13;;;;;;;22.28;28.67;98673.00;5029695;28;20022;-78
2021/03/28 08:30:26;;;;;;;45.53;28.27;;;;;;;22.96;27.62;98674.81;5007402;28;20477;-78
2021/03/28 08:32:57;;;;;;;38.80;26.67;;;;;;;23.01;27.21;98671.66;5028409;28;20029;-78
2021/03/28 08:36:14;;;;;;;44.00;27.35;;;;;;;23.11;26.74;98656.97;5011676;28;20056;-77
2021/03/28 08:38:51;;;;;;;46.88;28.17;;;;;;;23.35;26.93;98669.31;4982722;28;20025;-78
2021/03/28 08:41:41;;;;;;;38.90;24.40;;;;;;;24.14;25.33;98668.75;5025074;28;20112;-79
2021/03/28 08:44:18;;;;;;;63.97;44.20;;;;;;;23.62;25.80;98663.94;5011506;28;20021;-78
2021/03/28 08:47:02;;;;;;;64.13;35.67;;;;;;;22.49;27.96;98676.47;5027175;28;20112;-79
2021/03/28 08:49:30;;;;;;;90.15;42.10;;;;;;;21.59;28.99;98674.75;5010318;28;20112;-78
2021/03/28 08:52:19;;;;;;;63.17;36.75;;;;;;;20.59;30.00;98678.03;5028853;28;20057;-78
2021/03/28 08:55:14;;;;;;;58.65;34.08;;;;;;;19.64;31.99;98684.13;4995257;28;20025;-78
2021/03/28 08:57:45;;;;;;;61.53;33.17;;;;;;;19.65;32.25;98688.59;5029558;28;20507;-79
2021/03/28 09:00:16;;;;;;;53.80;30.27;;;;;;;19.80;31.11;98679.19;5011862;28;20374;-78
2021/03/28 09:03:03;;;;;;;53.30;29.58;;;;;;;19.75;32.32;98694.97;5026676;28;20037;-78
2021/03/28 09:05:41;;;;;;;55.42;31.63;;;;;;;19.95;32.43;98683.38;5011679;28;20037;-78
2021/03/28 09:08:35;;;;;;;54.13;35.22;;;;;;;20.78;31.59;98683.66;5029286;28;20040;-78
2021/03/28 09:11:22;;;;;;;81.32;42.78;;;;;;;22.19;28.27;98671.13;4994725;28;20436;-78
2021/03/28 09:14:06;;;;;;;67.90;42.85;;;;;;;22.83;27.48;98670.63;5011454;28;20045;-78
2021/03/28 09:17:06;;;;;;;55.03;32.85;;;;;;;22.94;27.63;98671.38;5025723;28;20057;-76
2021/03/28 09:20:03;;;;;;;68.05;41.20;;;;;;;23.41;26.76;98664.13;5014824;28;20041;-78
2021/03/28 09:22:48;;;;;;;67.75;40.80;;;;;;;23.22;27.26;98670.44;5030164;28;20034;-78
2021/03/28 09:25:29;;;;;;;63.30;38.42;;;;;;;23.87;26.44;98659.66;5014415;28;20146;-78
2021/03/28 09:28:26;;;;;;;62.55;31.02;;;;;;;24.25;25.70;98652.13;5015341;28;20025;-78
2021/03/28 09:31:05;;;;;;;51.40;27.02;;;;;;;24.17;27.47;98656.66;5012243;28;20107;-78
2021/03/28 09:33:36;;;;;;;30.05;18.70;;;;;;;23.67;27.97;98658.88;5033514;28;20025;-78
2021/03/28 09:36:10;;;;;;;34.27;19.03;;;;;;;22.61;29.56;98674.50;5016852;28;20540;-85
2021/03/28 09:38:41;;;;;;;34.33;18.13;;;;;;;22.02;30.54;98669.09;5029171;28;20032;-86
2021/03/28 09:41:09;;;;;;;31.75;16.02;;;;;;;21.07;31.64;98673.00;5015759;28;20459;-85
2021/03/28 09:43:38;;;;;;;37.55;17.30;;;;;;;20.47;32.84;98669.06;5018131;28;20055;-85
2021/03/28 09:46:10;;;;;;;65.68;18.92;;;;;;;20.21;34.58;98683.09;4998492;28;20405;-89
2021/03/28 09:49:02;;;;;;;75.97;43.90;;;;;;;19.67;35.51;98688.44;5017523;28;20123;-79
2021/03/28 09:51:46;;;;;;;29.88;16.25;;;;;;;19.37;36.11;98689.91;5015791;28;20054;-80
2021/03/28 09:54:33;;;;;;;64.95;22.08;;;;;;;19.08;36.91;98695.88;4999625;28;20032;-81
2021/03/28 09:57:27;;;;;;;40.67;17.80;;;;;;;18.99;37.21;98691.16;5015815;28;20424;-80
2021/03/28 10:00:28;;;;;;;27.25;13.80;;;;;;;18.79;37.80;98688.16;4994315;28;20071;-78
2021/03/28 10:03:24;;;;;;;23.02;13.75;;;;;;;18.53;38.56;98683.84;5012145;28;20547;-80
2021/03/28 10:05:50;;;;;;;24.33;15.75;;;;;;;18.79;37.52;98684.59;5015078;28;20462;-79
2021/03/28 10:08:18;;;;;;;40.65;15.75;;;;;;;18.84;37.42;98672.38;4998900;28;20040;-79
2021/03/28 10:10:54;;;;;;;30.15;14.75;;;;;;;18.75;36.61;98672.22;4997818;28;20017;-78
2021/03/28 10:13:29;;;;;;;27.33;15.63;;;;;;;18.51;37.12;98669.56;4999218;28;20017;-83
2021/03/28 10:16:17;;;;;;;28.13;16.90;;;;;;;18.57;37.30;98665.53;5017722;28;20033;-84
2021/03/28 10:18:57;;;;;;;37.00;19.65;;;;;;;18.61;37.82;98686.84;5032618;28;20025;-85
2021/03/28 10:21:38;;;;;;;43.17;21.58;;;;;;;18.49;37.66;98693.19;5017061;28;20041;-81
2021/03/28 10:24:12;;;;;;;26.20;14.90;;;;;;;18.15;38.91;98691.28;5017086;28;20025;-84
2021/03/28 10:27:04;;;;;;;31.15;16.83;;;;;;;17.92;40.32;98703.78;5001474;28;20026;-84
2021/03/28 10:29:44;;;;;;;27.60;13.57;;;;;;;17.43;41.43;98698.31;5020464;28;20064;-78
2021/03/28 10:32:12;;;;;;;18.23;11.48;;;;;;;17.39;41.53;98699.50;5011855;28;20025;-77
2021/03/28 10:34:58;;;;;;;16.38;9.95;;;;;;;17.57;43.45;98700.91;5032541;28;20037;-77
2021/03/28 10:37:32;;;;;;;18.65;10.85;;;;;;;17.79;42.14;98695.69;5031655;28;20036;-77
2021/03/28 10:40:14;;;;;;;16.58;10.88;;;;;;;17.78;43.27;98691.25;5030693;28;20520;-78
2021/03/28 10:43:00;;;;;;;32.63;21.17;;;;;;;17.90;43.84;98689.50;5014022;28;20025;-78
2021/03/28 10:45:34;;;;;;;15.77;10.50;;;;;;;17.88;42.62;98683.31;5013592;28;20037;-80
2021/03/28 10:48:21;;;;;;;15.88;9.38;;;;;;;17.82;42.07;98690.06;5032983;28;20029;-77
2021/03/28 10:51:07;;;;;;;17.27;10.90;;;;;;;17.94;41.98;98680.16;5015355;28;20021;-77
2021/03/28 10:53:54;;;;;;;18.05;9.20;;;;;;;18.13;42.04;98682.38;5013535;28;20080;-88
2021/03/28 10:56:32;;;;;;;19.50;12.15;;;;;;;18.32;41.95;98680.03;4998345;28;20037;-81
2021/03/28 10:59:07;;;;;;;16.73;10.60;;;;;;;18.36;42.74;98679.66;5010770;28;20106;-78
2021/03/28 11:01:51;;;;;;;17.77;10.50;;;;;;;18.55;40.75;98683.75;5014719;28;20039;-78
2021/03/28 11:04:26;;;;;;;23.60;13.80;;;;;;;18.53;40.95;98689.28;5032424;28;20032;-79
2021/03/28 11:07:22;;;;;;;25.10;16.83;;;;;;;18.35;41.36;98690.63;5032318;28;20555;-82
2021/03/28 11:10:21;;;;;;;29.15;15.68;;;;;;;18.36;41.01;98686.94;5019106;28;20033;-84
2021/03/28 11:13:18;;;;;;;23.25;13.85;;;;;;;18.13;41.51;98687.78;4983003;28;20046;-84
2021/03/28 11:15:57;;;;;;;25.90;15.35;;;;;;;18.07;41.65;98681.00;5021647;28;20128;-84
2021/03/28 11:18:52;;;;;;;18.58;11.57;;;;;;;18.19;41.04;98685.50;5003403;28;20556;-91
2021/03/28 11:21:26;;;;;;;26.75;17.20;;;;;;;17.80;42.32;98659.53;5031264;28;20040;-81
2021/03/28 11:24:06;;;;;;;18.20;11.27;;;;;;;17.93;41.94;98666.75;4996050;28;20038;-80
2021/03/28 11:27:08;;;;;;;16.52;11.75;;;;;;;18.03;41.56;98656.94;4998744;28;20061;-80
2021/03/28 11:29:43;;;;;;;17.77;12.30;;;;;;;18.23;40.69;98664.47;5012455;28;20481;-76
2021/03/28 11:32:23;;;;;;;15.73;10.98;;;;;;;18.25;40.38;98668.78;5031009;28;20497;-78
2021/03/28 11:35:10;;;;;;;24.83;14.52;;;;;;;18.56;40.33;98661.94;5012320;28;20116;-86
2021/03/28 11:37:42;;;;;;;17.60;12.70;;;;;;;18.75;39.86;98654.13;5028800;28;20030;-77
2021/03/28 11:40:07;;;;;;;28.90;15.13;;;;;;;19.39;38.48;98658.09;5029631;28;20029;-89
2021/03/28 11:42:33;;;;;;;16.60;9.88;;;;;;;19.63;37.07;98648.94;5014350;28;20033;-84
2021/03/28 11:44:59;;;;;;;15.48;10.23;;;;;;;19.69;37.53;98641.16;4998008;28;20057;-85
2021/03/28 11:47:35;;;;;;;14.82;10.98;;;;;;;19.57;38.29;98630.44;5015552;28;20514;-91
2021/03/28 11:50:13;;;;;;;18.77;12.38;;;;;;;19.89;37.14;98637.69;4996601;28;20064;-78
2021/03/28 11:52:44;;;;;;;16.08;9.82;;;;;;;20.10;36.09;98626.91;5028464;28;20425;-80
2021/03/28 11:55:15;;;;;;;18.02;12.13;;;;;;;20.25;36.37;98635.63;5028500;28;20026;-79
2021/03/28 11:57:41;;;;;;;21.95;13.70;;;;;;;20.32;35.32;98620.56;4995718;28;20029;-87
2021/03/28 12:00:48;;;;;;;11.57;8.20;;;;;;;21.26;33.59;98617.81;4995442;28;20033;-86
2021/03/28 12:03:18;;;;;;;21.27;13.75;;;;;;;22.34;32.05;98612.47;5026379;28;20029;-85
2021/03/28 12:05:55;;;;;;;12.90;9.05;;;;;;;22.63;31.86;98613.34;5008248;28;20108;-85
2021/03/28 12:08:22;;;;;;;11.50;8.50;;;;;;;22.44;31.83;98612.47;5003364;28;20517;-86
2021/03/28 12:10:48;;;;;;;9.30;6.70;;;;;;;22.63;31.08;98613.34;5013450;28;20025;-91
2021/03/28 12:13:30;;;;;;;10.45;7.97;;;;;;;23.79;30.36;98611.19;4994278;28;20112;-88
2021/03/28 12:15:58;;;;;;;11.68;7.78;;;;;;;24.74;28.48;98606.97;4995007;28;20507;-88
2021/03/28 12:18:38;;;;;;;13.07;8.20;;;;;;;24.77;27.58;98595.69;4995104;28;20385;-78
2021/03/28 12:21:07;;;;;;;14.32;11.32;;;;;;;25.64;27.00;98597.53;4995488;28;20063;-79
2021/03/28 12:23:42;;;;;;;15.50;10.23;;;;;;;26.49;26.05;98602.81;5028637;28;20063;-83
2021/03/28 12:26:08;;;;;;;6.75;5.60;;;;;;;27.59;23.86;98580.31;4994516;28;20041;-84
2021/03/28 12:28:50;;;;;;;11.52;7.57;;;;;;;27.87;23.20;98574.16;5010938;28;20176;-85
2021/03/28 12:31:50;;;;;;;12.25;5.90;;;;;;;26.61;24.74;98571.25;4994517;28;20025;-84
2021/03/28 12:34:32;;;;;;;8.10;6.68;;;;;;;27.45;23.61;98558.00;4981163;28;20421;-83
2021/03/28 12:37:03;;;;;;;9.75;6.70;;;;;;;28.16;23.88;98567.16;4994502;28;20206;-85